sensor_id;sensor_type;location;lat;lon;timestamp;temperature;humidity
48898;DHT22;34713;50.038;20.000;2022-12-18T00:03:33;0.92;62.11
48898;DHT22;34713;50.038;20.000;2022-12-18T00:05:59;0.91;62.05
48898;DHT22;34713;50.038;20.000;2022-12-18T00:08:25;0.92;62.03
48898;DHT22;34713;50.038;20.000;2022-12-18T00:10:51;0.92;62.00
48898;DHT22;34713;50.038;20.000;2022-12-18T00:13:17;0.91;62.04
48898;DHT22;34713;50.038;20.000;2022-12-18T00:15:42;0.94;62.00
48898;DHT22;34713;50.038;20.000;2022-12-18T00:18:08;0.92;61.96
48898;DHT22;34713;50.038;20.000;2022-12-18T00:20:39;0.94;61.98
48898;DHT22;34713;50.038;20.000;2022-12-18T00:23:06;0.94;61.97
48898;DHT22;34713;50.038;20.000;2022-12-18T00:25:34;0.96;61.93
48898;DHT22;34713;50.038;20.000;2022-12-18T00:28:02;0.94;61.92
48898;DHT22;34713;50.038;20.000;2022-12-18T00:30:28;0.94;61.91
48898;DHT22;34713;50.038;20.000;2022-12-18T00:32:54;0.94;61.81
48898;DHT22;34713;50.038;20.000;2022-12-18T00:35:20;0.96;61.82
48898;DHT22;34713;50.038;20.000;2022-12-18T00:37:46;0.95;61.82
48898;DHT22;34713;50.038;20.000;2022-12-18T00:40:12;0.95;61.80
48898;DHT22;34713;50.038;20.000;2022-12-18T00:42:38;0.95;61.81
48898;DHT22;34713;50.038;20.000;2022-12-18T00:45:27;0.96;61.81
48898;DHT22;34713;50.038;20.000;2022-12-18T00:47:54;0.96;61.76
48898;DHT22;34713;50.038;20.000;2022-12-18T00:50:21;0.95;61.73
48898;DHT22;34713;50.038;20.000;2022-12-18T00:52:47;0.96;61.73
48898;DHT22;34713;50.038;20.000;2022-12-18T00:55:13;0.94;61.70
48898;DHT22;34713;50.038;20.000;2022-12-18T00:57:40;0.96;61.69
48898;DHT22;34713;50.038;20.000;2022-12-18T01:00:14;0.96;61.75
48898;DHT22;34713;50.038;20.000;2022-12-18T01:02:37;0.99;61.71
48898;DHT22;34713;50.038;20.000;2022-12-18T01:05:05;0.98;61.69
48898;DHT22;34713;50.038;20.000;2022-12-18T01:07:31;1.01;61.62
48898;DHT22;34713;50.038;20.000;2022-12-18T01:09:57;0.99;61.61
48898;DHT22;34713;50.038;20.000;2022-12-18T01:12:23;1.02;61.61
48898;DHT22;34713;50.038;20.000;2022-12-18T01:14:49;1.04;61.62
48898;DHT22;34713;50.038;20.000;2022-12-18T01:17:14;1.04;61.58
48898;DHT22;34713;50.038;20.000;2022-12-18T01:19:40;1.05;61.60
48898;DHT22;34713;50.038;20.000;2022-12-18T01:22:06;1.04;61.57
48898;DHT22;34713;50.038;20.000;2022-12-18T01:24:32;1.05;61.59
48898;DHT22;34713;50.038;20.000;2022-12-18T01:26:57;1.06;61.55
48898;DHT22;34713;50.038;20.000;2022-12-18T01:29:23;1.05;61.57
48898;DHT22;34713;50.038;20.000;2022-12-18T01:31:49;1.04;61.54
48898;DHT22;34713;50.038;20.000;2022-12-18T01:34:15;1.04;61.54
48898;DHT22;34713;50.038;20.000;2022-12-18T01:36:41;0.98;61.54
48898;DHT22;34713;50.038;20.000;2022-12-18T01:39:13;0.98;61.55
48898;DHT22;34713;50.038;20.000;2022-12-18T01:41:39;0.95;61.59
48898;DHT22;34713;50.038;20.000;2022-12-18T01:45:06;0.95;61.63
48898;DHT22;34713;50.038;20.000;2022-12-18T01:50:36;0.98;61.61
48898;DHT22;34713;50.038;20.000;2022-12-18T01:53:17;0.95;61.60
48898;DHT22;34713;50.038;20.000;2022-12-18T01:55:46;0.94;61.61
48898;DHT22;34713;50.038;20.000;2022-12-18T01:58:13;0.95;61.61
48898;DHT22;34713;50.038;20.000;2022-12-18T02:00:39;0.95;61.56
48898;DHT22;34713;50.038;20.000;2022-12-18T02:03:05;0.95;61.61
48898;DHT22;34713;50.038;20.000;2022-12-18T02:06:01;0.96;61.59
48898;DHT22;34713;50.038;20.000;2022-12-18T02:08:48;0.98;61.56
48898;DHT22;34713;50.038;20.000;2022-12-18T02:11:42;1.01;61.53
48898;DHT22;34713;50.038;20.000;2022-12-18T02:23:08;0.99;61.47
48898;DHT22;34713;50.038;20.000;2022-12-18T02:28:27;1.02;61.46
48898;DHT22;34713;50.038;20.000;2022-12-18T02:30:56;1.06;61.40
48898;DHT22;34713;50.038;20.000;2022-12-18T02:33:26;1.06;61.38
48898;DHT22;34713;50.038;20.000;2022-12-18T02:35:53;1.05;61.33
48898;DHT22;34713;50.038;20.000;2022-12-18T02:38:20;1.06;61.32
48898;DHT22;34713;50.038;20.000;2022-12-18T02:40:47;1.06;61.28
48898;DHT22;34713;50.038;20.000;2022-12-18T02:43:15;1.06;61.28
48898;DHT22;34713;50.038;20.000;2022-12-18T02:45:52;1.08;61.27
48898;DHT22;34713;50.038;20.000;2022-12-18T02:48:25;1.08;61.23
48898;DHT22;34713;50.038;20.000;2022-12-18T02:51:12;1.06;61.20
48898;DHT22;34713;50.038;20.000;2022-12-18T02:56:20;1.06;61.21
48898;DHT22;34713;50.038;20.000;2022-12-18T02:59:09;1.04;61.19
48898;DHT22;34713;50.038;20.000;2022-12-18T03:01:45;1.02;61.24
48898;DHT22;34713;50.038;20.000;2022-12-18T03:04:26;1.02;61.23
48898;DHT22;34713;50.038;20.000;2022-12-18T03:06:57;1.01;61.28
48898;DHT22;34713;50.038;20.000;2022-12-18T03:09:35;1.04;61.26
48898;DHT22;34713;50.038;20.000;2022-12-18T03:12:14;1.06;61.23
48898;DHT22;34713;50.038;20.000;2022-12-18T03:15:05;1.06;61.25
48898;DHT22;34713;50.038;20.000;2022-12-18T03:17:33;1.02;61.21
48898;DHT22;34713;50.038;20.000;2022-12-18T03:20:06;1.08;61.23
48898;DHT22;34713;50.038;20.000;2022-12-18T03:22:32;1.08;61.14
48898;DHT22;34713;50.038;20.000;2022-12-18T03:25:02;1.08;61.15
48898;DHT22;34713;50.038;20.000;2022-12-18T03:27:30;1.09;61.15
48898;DHT22;34713;50.038;20.000;2022-12-18T03:30:11;1.08;61.12
48898;DHT22;34713;50.038;20.000;2022-12-18T03:35:14;1.12;61.12
48898;DHT22;34713;50.038;20.000;2022-12-18T03:37:41;1.06;61.19
48898;DHT22;34713;50.038;20.000;2022-12-18T03:40:08;1.08;61.16
48898;DHT22;34713;50.038;20.000;2022-12-18T03:45:37;1.11;61.18
48898;DHT22;34713;50.038;20.000;2022-12-18T03:48:08;1.09;61.17
48898;DHT22;34713;50.038;20.000;2022-12-18T03:50:59;1.08;61.19
48898;DHT22;34713;50.038;20.000;2022-12-18T03:53:39;1.06;61.21
48898;DHT22;34713;50.038;20.000;2022-12-18T03:56:05;1.09;61.19
48898;DHT22;34713;50.038;20.000;2022-12-18T03:58:32;1.09;61.15
48898;DHT22;34713;50.038;20.000;2022-12-18T04:01:02;1.11;61.10
48898;DHT22;34713;50.038;20.000;2022-12-18T04:03:31;1.08;61.10
48898;DHT22;34713;50.038;20.000;2022-12-18T04:05:59;1.04;61.15
48898;DHT22;34713;50.038;20.000;2022-12-18T04:08:26;1.05;61.16
48898;DHT22;34713;50.038;20.000;2022-12-18T04:10:52;1.06;61.13
48898;DHT22;34713;50.038;20.000;2022-12-18T04:13:32;1.09;61.15
48898;DHT22;34713;50.038;20.000;2022-12-18T04:15:57;1.08;61.12
48898;DHT22;34713;50.038;20.000;2022-12-18T04:18:23;1.08;61.08
48898;DHT22;34713;50.038;20.000;2022-12-18T04:20:49;1.09;61.12
48898;DHT22;34713;50.038;20.000;2022-12-18T04:23:14;1.06;61.10
48898;DHT22;34713;50.038;20.000;2022-12-18T04:25:40;1.08;61.06
48898;DHT22;34713;50.038;20.000;2022-12-18T04:28:06;1.09;61.06
48898;DHT22;34713;50.038;20.000;2022-12-18T04:30:32;1.04;61.06
48898;DHT22;34713;50.038;20.000;2022-12-18T04:32:57;1.05;61.08
48898;DHT22;34713;50.038;20.000;2022-12-18T04:35:23;1.04;61.09
48898;DHT22;34713;50.038;20.000;2022-12-18T04:37:49;1.01;61.12
48898;DHT22;34713;50.038;20.000;2022-12-18T04:40:15;0.99;61.08
48898;DHT22;34713;50.038;20.000;2022-12-18T04:42:41;0.96;61.07
48898;DHT22;34713;50.038;20.000;2022-12-18T04:45:08;0.96;61.12
48898;DHT22;34713;50.038;20.000;2022-12-18T04:47:34;0.96;61.12
48898;DHT22;34713;50.038;20.000;2022-12-18T04:49:59;0.94;61.12
48898;DHT22;34713;50.038;20.000;2022-12-18T04:52:25;0.98;61.12
48898;DHT22;34713;50.038;20.000;2022-12-18T04:54:51;0.96;61.08
48898;DHT22;34713;50.038;20.000;2022-12-18T04:57:17;0.96;61.08
48898;DHT22;34713;50.038;20.000;2022-12-18T04:59:45;0.95;61.09
48898;DHT22;34713;50.038;20.000;2022-12-18T05:02:11;0.95;61.09
48898;DHT22;34713;50.038;20.000;2022-12-18T05:04:36;0.91;61.13
48898;DHT22;34713;50.038;20.000;2022-12-18T05:07:02;0.89;61.15
48898;DHT22;34713;50.038;20.000;2022-12-18T05:09:28;0.89;61.16
48898;DHT22;34713;50.038;20.000;2022-12-18T05:11:54;0.88;61.17
48898;DHT22;34713;50.038;20.000;2022-12-18T05:14:20;0.87;61.15
48898;DHT22;34713;50.038;20.000;2022-12-18T05:16:45;0.87;61.21
48898;DHT22;34713;50.038;20.000;2022-12-18T05:19:11;0.89;61.20
48898;DHT22;34713;50.038;20.000;2022-12-18T05:21:37;0.89;61.20
48898;DHT22;34713;50.038;20.000;2022-12-18T05:24:04;0.89;61.14
48898;DHT22;34713;50.038;20.000;2022-12-18T05:26:30;0.88;61.21
48898;DHT22;34713;50.038;20.000;2022-12-18T05:28:56;0.89;61.20
48898;DHT22;34713;50.038;20.000;2022-12-18T05:31:22;0.92;61.13
48898;DHT22;34713;50.038;20.000;2022-12-18T05:33:48;0.91;61.13
48898;DHT22;34713;50.038;20.000;2022-12-18T05:36:14;0.95;61.13
48898;DHT22;34713;50.038;20.000;2022-12-18T05:38:40;0.96;61.06
48898;DHT22;34713;50.038;20.000;2022-12-18T05:41:07;0.98;61.09
48898;DHT22;34713;50.038;20.000;2022-12-18T05:43:36;0.99;61.07
48898;DHT22;34713;50.038;20.000;2022-12-18T05:46:09;1.01;60.99
48898;DHT22;34713;50.038;20.000;2022-12-18T05:48:35;0.99;60.96
48898;DHT22;34713;50.038;20.000;2022-12-18T05:51:07;1.02;60.98
48898;DHT22;34713;50.038;20.000;2022-12-18T05:53:34;1.02;60.99
48898;DHT22;34713;50.038;20.000;2022-12-18T05:56:03;1.04;60.98
48898;DHT22;34713;50.038;20.000;2022-12-18T05:58:30;0.99;60.96
48898;DHT22;34713;50.038;20.000;2022-12-18T06:00:56;1.01;60.96
48898;DHT22;34713;50.038;20.000;2022-12-18T06:03:22;0.99;60.95
48898;DHT22;34713;50.038;20.000;2022-12-18T06:05:48;1.01;60.87
48898;DHT22;34713;50.038;20.000;2022-12-18T06:08:14;0.99;60.85
48898;DHT22;34713;50.038;20.000;2022-12-18T06:10:41;1.01;60.89
48898;DHT22;34713;50.038;20.000;2022-12-18T06:13:07;1.01;60.87
48898;DHT22;34713;50.038;20.000;2022-12-18T06:15:37;1.04;60.88
48898;DHT22;34713;50.038;20.000;2022-12-18T06:18:03;1.04;60.80
48898;DHT22;34713;50.038;20.000;2022-12-18T06:20:30;1.05;60.81
48898;DHT22;34713;50.038;20.000;2022-12-18T06:22:56;1.02;60.81
48898;DHT22;34713;50.038;20.000;2022-12-18T06:25:22;1.02;60.79
48898;DHT22;34713;50.038;20.000;2022-12-18T06:27:48;1.01;60.75
48898;DHT22;34713;50.038;20.000;2022-12-18T06:30:14;1.02;60.80
48898;DHT22;34713;50.038;20.000;2022-12-18T06:32:40;0.99;60.76
48898;DHT22;34713;50.038;20.000;2022-12-18T06:35:07;1.02;60.73
48898;DHT22;34713;50.038;20.000;2022-12-18T06:37:32;1.02;60.70
48898;DHT22;34713;50.038;20.000;2022-12-18T06:39:58;1.04;60.74
48898;DHT22;34713;50.038;20.000;2022-12-18T06:42:24;1.05;60.73
48898;DHT22;34713;50.038;20.000;2022-12-18T06:44:50;1.04;60.68
48898;DHT22;34713;50.038;20.000;2022-12-18T06:47:16;1.05;60.66
48898;DHT22;34713;50.038;20.000;2022-12-18T06:49:43;1.04;60.63
48898;DHT22;34713;50.038;20.000;2022-12-18T06:52:08;1.06;60.65
48898;DHT22;34713;50.038;20.000;2022-12-18T06:54:34;1.05;60.65
48898;DHT22;34713;50.038;20.000;2022-12-18T06:57:00;1.05;60.67
48898;DHT22;34713;50.038;20.000;2022-12-18T06:59:26;1.05;60.71
48898;DHT22;34713;50.038;20.000;2022-12-18T07:01:51;1.08;60.72
48898;DHT22;34713;50.038;20.000;2022-12-18T07:04:17;1.08;60.69
48898;DHT22;34713;50.038;20.000;2022-12-18T07:06:43;1.09;60.66
48898;DHT22;34713;50.038;20.000;2022-12-18T07:09:09;1.11;60.67
48898;DHT22;34713;50.038;20.000;2022-12-18T07:11:35;1.15;60.65
48898;DHT22;34713;50.038;20.000;2022-12-18T07:14:00;1.18;60.64
48898;DHT22;34713;50.038;20.000;2022-12-18T07:16:26;1.16;60.58
48898;DHT22;34713;50.038;20.000;2022-12-18T07:18:55;1.19;60.58
48898;DHT22;34713;50.038;20.000;2022-12-18T07:21:22;1.22;60.60
48898;DHT22;34713;50.038;20.000;2022-12-18T07:23:48;1.22;60.56
48898;DHT22;34713;50.038;20.000;2022-12-18T07:26:18;1.25;60.53
48898;DHT22;34713;50.038;20.000;2022-12-18T07:28:44;1.25;60.55
48898;DHT22;34713;50.038;20.000;2022-12-18T07:31:14;1.29;60.52
48898;DHT22;34713;50.038;20.000;2022-12-18T07:33:41;1.31;60.48
48898;DHT22;34713;50.038;20.000;2022-12-18T07:36:08;1.29;60.43
48898;DHT22;34713;50.038;20.000;2022-12-18T07:38:35;1.32;60.40
48898;DHT22;34713;50.038;20.000;2022-12-18T07:41:04;1.31;60.38
48898;DHT22;34713;50.038;20.000;2022-12-18T07:43:30;1.32;60.32
48898;DHT22;34713;50.038;20.000;2022-12-18T07:45:56;1.32;60.31
48898;DHT22;34713;50.038;20.000;2022-12-18T07:48:22;1.35;60.29
48898;DHT22;34713;50.038;20.000;2022-12-18T07:50:48;1.38;60.26
48898;DHT22;34713;50.038;20.000;2022-12-18T07:53:14;1.39;60.25
48898;DHT22;34713;50.038;20.000;2022-12-18T07:55:41;1.42;60.24
48898;DHT22;34713;50.038;20.000;2022-12-18T07:58:07;1.43;60.18
48898;DHT22;34713;50.038;20.000;2022-12-18T08:00:34;1.46;60.18
48898;DHT22;34713;50.038;20.000;2022-12-18T08:03:00;1.47;60.13
48898;DHT22;34713;50.038;20.000;2022-12-18T08:05:26;1.47;60.07
48898;DHT22;34713;50.038;20.000;2022-12-18T08:07:53;1.49;59.98
48898;DHT22;34713;50.038;20.000;2022-12-18T08:10:20;1.50;59.96
48898;DHT22;34713;50.038;20.000;2022-12-18T08:12:49;1.54;59.97
48898;DHT22;34713;50.038;20.000;2022-12-18T08:15:16;1.54;59.95
48898;DHT22;34713;50.038;20.000;2022-12-18T08:17:42;1.57;59.84
48898;DHT22;34713;50.038;20.000;2022-12-18T08:20:09;1.57;59.85
48898;DHT22;34713;50.038;20.000;2022-12-18T08:22:35;1.60;59.85
48898;DHT22;34713;50.038;20.000;2022-12-18T08:25:02;1.66;59.85
48898;DHT22;34713;50.038;20.000;2022-12-18T08:27:29;1.69;59.82
48898;DHT22;34713;50.038;20.000;2022-12-18T08:29:55;1.74;59.76
48898;DHT22;34713;50.038;20.000;2022-12-18T08:32:21;1.78;59.74
48898;DHT22;34713;50.038;20.000;2022-12-18T08:34:47;1.84;59.77
48898;DHT22;34713;50.038;20.000;2022-12-18T08:37:13;1.87;59.67
48898;DHT22;34713;50.038;20.000;2022-12-18T08:39:38;1.90;59.66
48898;DHT22;34713;50.038;20.000;2022-12-18T08:42:04;1.95;59.61
48898;DHT22;34713;50.038;20.000;2022-12-18T08:44:48;2.00;59.59
48898;DHT22;34713;50.038;20.000;2022-12-18T08:47:13;2.04;59.49
48898;DHT22;34713;50.038;20.000;2022-12-18T08:49:39;2.08;59.45
48898;DHT22;34713;50.038;20.000;2022-12-18T08:52:06;2.13;59.32
48898;DHT22;34713;50.038;20.000;2022-12-18T08:54:32;2.15;59.26
48898;DHT22;34713;50.038;20.000;2022-12-18T08:56:57;2.19;59.18
48898;DHT22;34713;50.038;20.000;2022-12-18T08:59:23;2.18;59.11
48898;DHT22;34713;50.038;20.000;2022-12-18T09:01:49;2.22;58.99
48898;DHT22;34713;50.038;20.000;2022-12-18T09:04:15;2.22;58.95
48898;DHT22;34713;50.038;20.000;2022-12-18T09:06:41;2.26;58.91
48898;DHT22;34713;50.038;20.000;2022-12-18T09:09:07;2.26;58.84
48898;DHT22;34713;50.038;20.000;2022-12-18T09:11:33;2.35;58.77
48898;DHT22;34713;50.038;20.000;2022-12-18T09:14:00;2.39;58.75
48898;DHT22;34713;50.038;20.000;2022-12-18T09:16:28;2.49;58.78
48898;DHT22;34713;50.038;20.000;2022-12-18T09:18:55;2.53;58.77
48898;DHT22;34713;50.038;20.000;2022-12-18T09:21:23;2.59;58.70
48898;DHT22;34713;50.038;20.000;2022-12-18T09:23:51;2.64;58.63
48898;DHT22;34713;50.038;20.000;2022-12-18T09:26:17;2.70;58.52
48898;DHT22;34713;50.038;20.000;2022-12-18T09:28:43;2.73;58.35
48898;DHT22;34713;50.038;20.000;2022-12-18T09:31:12;2.71;58.30
48898;DHT22;34713;50.038;20.000;2022-12-18T09:33:38;2.76;58.17
48898;DHT22;34713;50.038;20.000;2022-12-18T09:36:08;2.77;58.07
48898;DHT22;34713;50.038;20.000;2022-12-18T09:38:35;2.80;57.99
48898;DHT22;34713;50.038;20.000;2022-12-18T09:41:06;2.83;57.88
48898;DHT22;34713;50.038;20.000;2022-12-18T09:43:46;2.81;57.73
48898;DHT22;34713;50.038;20.000;2022-12-18T09:46:23;2.83;57.68
48898;DHT22;34713;50.038;20.000;2022-12-18T09:48:49;2.83;57.54
48898;DHT22;34713;50.038;20.000;2022-12-18T09:51:22;2.85;57.61
48898;DHT22;34713;50.038;20.000;2022-12-18T09:54:05;2.85;57.60
48898;DHT22;34713;50.038;20.000;2022-12-18T09:56:35;2.84;57.62
48898;DHT22;34713;50.038;20.000;2022-12-18T09:59:04;2.88;57.54
48898;DHT22;34713;50.038;20.000;2022-12-18T10:01:32;2.91;57.56
48898;DHT22;34713;50.038;20.000;2022-12-18T10:03:59;2.97;57.53
48898;DHT22;34713;50.038;20.000;2022-12-18T10:06:55;3.01;57.49
48898;DHT22;34713;50.038;20.000;2022-12-18T10:12:27;3.10;57.44
48898;DHT22;34713;50.038;20.000;2022-12-18T10:15:20;3.11;57.29
48898;DHT22;34713;50.038;20.000;2022-12-18T10:20:44;3.14;57.12
48898;DHT22;34713;50.038;20.000;2022-12-18T10:23:34;3.15;56.96
48898;DHT22;34713;50.038;20.000;2022-12-18T10:26:05;3.11;56.92
48898;DHT22;34713;50.038;20.000;2022-12-18T10:28:34;3.14;56.83
48898;DHT22;34713;50.038;20.000;2022-12-18T10:31:00;3.12;56.69
48898;DHT22;34713;50.038;20.000;2022-12-18T10:33:31;3.11;56.68
48898;DHT22;34713;50.038;20.000;2022-12-18T10:35:58;3.07;56.57
48898;DHT22;34713;50.038;20.000;2022-12-18T10:38:30;3.08;56.55
48898;DHT22;34713;50.038;20.000;2022-12-18T10:43:47;3.02;56.42
48898;DHT22;34713;50.038;20.000;2022-12-18T10:46:16;3.00;56.41
48898;DHT22;34713;50.038;20.000;2022-12-18T10:48:55;3.00;56.42
48898;DHT22;34713;50.038;20.000;2022-12-18T10:51:28;2.94;56.33
48898;DHT22;34713;50.038;20.000;2022-12-18T10:54:13;2.94;56.27
48898;DHT22;34713;50.038;20.000;2022-12-18T10:56:36;2.91;56.27
48898;DHT22;34713;50.038;20.000;2022-12-18T10:59:06;2.91;56.24
48898;DHT22;34713;50.038;20.000;2022-12-18T11:01:56;2.90;56.22
48898;DHT22;34713;50.038;20.000;2022-12-18T11:04:29;2.88;56.24
48898;DHT22;34713;50.038;20.000;2022-12-18T11:07:05;2.87;56.21
48898;DHT22;34713;50.038;20.000;2022-12-18T11:09:34;2.85;56.13
48898;DHT22;34713;50.038;20.000;2022-12-18T11:12:04;2.85;56.11
48898;DHT22;34713;50.038;20.000;2022-12-18T11:14:47;2.83;56.05
48898;DHT22;34713;50.038;20.000;2022-12-18T11:17:30;2.84;56.01
48898;DHT22;34713;50.038;20.000;2022-12-18T11:20:05;2.85;55.94
48898;DHT22;34713;50.038;20.000;2022-12-18T11:22:34;2.85;55.94
48898;DHT22;34713;50.038;20.000;2022-12-18T11:27:39;2.83;55.93
48898;DHT22;34713;50.038;20.000;2022-12-18T11:33:18;2.81;55.83
48898;DHT22;34713;50.038;20.000;2022-12-18T11:35:59;2.81;55.72
48898;DHT22;34713;50.038;20.000;2022-12-18T11:38:40;2.79;55.63
48898;DHT22;34713;50.038;20.000;2022-12-18T11:44:03;2.83;55.59
48898;DHT22;34713;50.038;20.000;2022-12-18T11:46:36;2.83;55.64
48898;DHT22;34713;50.038;20.000;2022-12-18T11:49:25;2.84;55.55
48898;DHT22;34713;50.038;20.000;2022-12-18T11:52:08;2.85;55.49
48898;DHT22;34713;50.038;20.000;2022-12-18T11:54:32;2.87;55.42
48898;DHT22;34713;50.038;20.000;2022-12-18T11:57:28;2.87;55.33
48898;DHT22;34713;50.038;20.000;2022-12-18T12:00:18;2.85;55.36
48898;DHT22;34713;50.038;20.000;2022-12-18T12:05:47;2.84;55.26
48898;DHT22;34713;50.038;20.000;2022-12-18T12:11:27;2.85;55.21
48898;DHT22;34713;50.038;20.000;2022-12-18T12:16:57;2.90;55.34
48898;DHT22;34713;50.038;20.000;2022-12-18T12:20:08;2.91;55.22
48898;DHT22;34713;50.038;20.000;2022-12-18T12:25:41;2.94;55.03
48898;DHT22;34713;50.038;20.000;2022-12-18T12:39:11;2.97;54.67
48898;DHT22;34713;50.038;20.000;2022-12-18T12:41:39;3.01;54.80
48898;DHT22;34713;50.038;20.000;2022-12-18T12:44:13;3.00;54.76
48898;DHT22;34713;50.038;20.000;2022-12-18T12:46:41;3.01;54.65
48898;DHT22;34713;50.038;20.000;2022-12-18T12:49:13;3.02;54.59
48898;DHT22;34713;50.038;20.000;2022-12-18T12:51:46;3.04;54.66
48898;DHT22;34713;50.038;20.000;2022-12-18T12:54:21;3.02;54.59
48898;DHT22;34713;50.038;20.000;2022-12-18T12:59:45;3.04;54.58
48898;DHT22;34713;50.038;20.000;2022-12-18T13:05:56;3.00;54.51
48898;DHT22;34713;50.038;20.000;2022-12-18T13:08:29;3.00;54.48
48898;DHT22;34713;50.038;20.000;2022-12-18T13:10:59;3.00;54.41
48898;DHT22;34713;50.038;20.000;2022-12-18T13:13:56;2.97;54.51
48898;DHT22;34713;50.038;20.000;2022-12-18T13:16:22;2.97;54.40
48898;DHT22;34713;50.038;20.000;2022-12-18T13:18:54;2.95;54.42
48898;DHT22;34713;50.038;20.000;2022-12-18T13:21:31;2.95;54.39
48898;DHT22;34713;50.038;20.000;2022-12-18T13:24:21;2.91;54.50
48898;DHT22;34713;50.038;20.000;2022-12-18T13:26:43;2.88;54.38
48898;DHT22;34713;50.038;20.000;2022-12-18T13:29:08;2.84;54.03
48898;DHT22;34713;50.038;20.000;2022-12-18T13:34:27;2.67;54.10
48898;DHT22;34713;50.038;20.000;2022-12-18T13:39:33;2.50;54.29
48898;DHT22;34713;50.038;20.000;2022-12-18T13:44:40;2.40;54.49
48898;DHT22;34713;50.038;20.000;2022-12-18T13:47:35;2.38;54.71
48898;DHT22;34713;50.038;20.000;2022-12-18T13:50:24;2.29;54.81
48898;DHT22;34713;50.038;20.000;2022-12-18T13:52:52;2.26;54.63
48898;DHT22;34713;50.038;20.000;2022-12-18T13:55:19;2.26;54.76
48898;DHT22;34713;50.038;20.000;2022-12-18T13:57:46;2.19;54.71
48898;DHT22;34713;50.038;20.000;2022-12-18T14:00:28;2.15;54.75
48898;DHT22;34713;50.038;20.000;2022-12-18T14:02:57;2.05;54.91
48898;DHT22;34713;50.038;20.000;2022-12-18T14:05:31;2.02;55.00
48898;DHT22;34713;50.038;20.000;2022-12-18T14:08:10;1.97;54.94
48898;DHT22;34713;50.038;20.000;2022-12-18T14:10:45;1.91;55.13
48898;DHT22;34713;50.038;20.000;2022-12-18T14:13:27;1.85;55.18
48898;DHT22;34713;50.038;20.000;2022-12-18T14:15:53;1.81;54.93
48898;DHT22;34713;50.038;20.000;2022-12-18T14:20:57;1.57;55.15
48898;DHT22;34713;50.038;20.000;2022-12-18T14:26:49;1.36;55.37
48898;DHT22;34713;50.038;20.000;2022-12-18T14:28:31;1.33;55.05
48898;DHT22;34713;50.038;20.000;2022-12-18T14:30:57;1.18;55.06
48898;DHT22;34713;50.038;20.000;2022-12-18T14:33:26;1.02;55.30
48898;DHT22;34713;50.038;20.000;2022-12-18T14:36:03;0.91;55.46
48898;DHT22;34713;50.038;20.000;2022-12-18T14:38:38;0.85;55.48
48898;DHT22;34713;50.038;20.000;2022-12-18T14:43:41;0.64;55.68
48898;DHT22;34713;50.038;20.000;2022-12-18T14:49:17;0.49;55.94
48898;DHT22;34713;50.038;20.000;2022-12-18T14:51:34;0.40;55.95
48898;DHT22;34713;50.038;20.000;2022-12-18T14:54:05;0.33;56.07
48898;DHT22;34713;50.038;20.000;2022-12-18T14:56:36;0.23;56.11
48898;DHT22;34713;50.038;20.000;2022-12-18T14:59:11;0.16;56.32
48898;DHT22;34713;50.038;20.000;2022-12-18T15:01:44;0.11;56.41
48898;DHT22;34713;50.038;20.000;2022-12-18T15:23:30;-0.22;56.62
48898;DHT22;34713;50.038;20.000;2022-12-18T15:26:07;-0.25;56.67
48898;DHT22;34713;50.038;20.000;2022-12-18T15:31:24;-0.30;56.78
48898;DHT22;34713;50.038;20.000;2022-12-18T15:36:23;-0.35;56.90
48898;DHT22;34713;50.038;20.000;2022-12-18T15:38:53;-0.36;56.96
48898;DHT22;34713;50.038;20.000;2022-12-18T15:41:20;-0.39;57.02
48898;DHT22;34713;50.038;20.000;2022-12-18T15:43:48;-0.43;57.06
48898;DHT22;34713;50.038;20.000;2022-12-18T15:46:18;-0.46;57.02
48898;DHT22;34713;50.038;20.000;2022-12-18T15:48:48;-0.50;57.06
48898;DHT22;34713;50.038;20.000;2022-12-18T15:51:34;-0.53;57.17
48898;DHT22;34713;50.038;20.000;2022-12-18T15:54:03;-0.56;57.19
48898;DHT22;34713;50.038;20.000;2022-12-18T15:56:30;-0.61;57.22
48898;DHT22;34713;50.038;20.000;2022-12-18T15:59:18;-0.64;57.31
48898;DHT22;34713;50.038;20.000;2022-12-18T16:01:47;-0.74;57.31
48898;DHT22;34713;50.038;20.000;2022-12-18T16:04:15;-0.80;57.32
48898;DHT22;34713;50.038;20.000;2022-12-18T16:06:42;-0.85;57.41
48898;DHT22;34713;50.038;20.000;2022-12-18T16:09:08;-0.88;57.42
48898;DHT22;34713;50.038;20.000;2022-12-18T16:11:36;-0.91;57.48
48898;DHT22;34713;50.038;20.000;2022-12-18T16:16:51;-0.96;57.52
48898;DHT22;34713;50.038;20.000;2022-12-18T16:19:18;-0.99;57.58
48898;DHT22;34713;50.038;20.000;2022-12-18T16:21:46;-1.01;57.60
48898;DHT22;34713;50.038;20.000;2022-12-18T16:24:19;-1.07;57.60
48898;DHT22;34713;50.038;20.000;2022-12-18T16:26:48;-1.12;57.61
48898;DHT22;34713;50.038;20.000;2022-12-18T16:29:14;-1.18;57.65
48898;DHT22;34713;50.038;20.000;2022-12-18T16:31:40;-1.23;57.69
48898;DHT22;34713;50.038;20.000;2022-12-18T16:36:49;-1.32;57.76
48898;DHT22;34713;50.038;20.000;2022-12-18T16:39:16;-1.33;57.74
48898;DHT22;34713;50.038;20.000;2022-12-18T16:41:42;-1.40;57.83
48898;DHT22;34713;50.038;20.000;2022-12-18T16:44:08;-1.43;57.88
48898;DHT22;34713;50.038;20.000;2022-12-18T16:46:34;-1.49;57.92
48898;DHT22;34713;50.038;20.000;2022-12-18T16:49:00;-1.47;57.98
48898;DHT22;34713;50.038;20.000;2022-12-18T16:51:27;-1.52;58.05
48898;DHT22;34713;50.038;20.000;2022-12-18T16:53:54;-1.62;58.04
48898;DHT22;34713;50.038;20.000;2022-12-18T16:56:20;-1.64;58.11
48898;DHT22;34713;50.038;20.000;2022-12-18T16:58:57;-1.68;58.16
48898;DHT22;34713;50.038;20.000;2022-12-18T17:01:25;-1.78;58.19
48898;DHT22;34713;50.038;20.000;2022-12-18T17:03:59;-1.80;58.26
48898;DHT22;34713;50.038;20.000;2022-12-18T17:06:28;-1.87;58.26
48898;DHT22;34713;50.038;20.000;2022-12-18T17:08:59;-1.91;58.27
48898;DHT22;34713;50.038;20.000;2022-12-18T17:11:28;-1.94;58.30
48898;DHT22;34713;50.038;20.000;2022-12-18T17:13:55;-1.95;58.32
48898;DHT22;34713;50.038;20.000;2022-12-18T17:16:21;-1.99;58.40
48898;DHT22;34713;50.038;20.000;2022-12-18T17:18:47;-1.99;58.40
48898;DHT22;34713;50.038;20.000;2022-12-18T17:21:14;-2.04;58.43
48898;DHT22;34713;50.038;20.000;2022-12-18T17:23:41;-2.08;58.58
48898;DHT22;34713;50.038;20.000;2022-12-18T17:26:11;-2.12;58.52
48898;DHT22;34713;50.038;20.000;2022-12-18T17:28:39;-2.16;58.61
48898;DHT22;34713;50.038;20.000;2022-12-18T17:31:19;-2.22;58.57
48898;DHT22;34713;50.038;20.000;2022-12-18T17:33:46;-2.27;58.61
48898;DHT22;34713;50.038;20.000;2022-12-18T17:36:13;-2.32;58.58
48898;DHT22;34713;50.038;20.000;2022-12-18T17:38:39;-2.38;58.61
48898;DHT22;34713;50.038;20.000;2022-12-18T17:41:07;-2.43;58.66
48898;DHT22;34713;50.038;20.000;2022-12-18T17:43:34;-2.49;58.69
48898;DHT22;34713;50.038;20.000;2022-12-18T17:46:05;-2.53;58.65